PRIVATE WETTERSTATION BILLIGHEIM-ALLFELD                       ZURCK
Wetterdaten: Sonntag, 01.10.2017
Datum Zeit Temp. A. Temp. A. min Temp. A. max Feuchte A. Luftdruck Regen Wind Richtung Richtung Sonnenschein ET Solar Taupunkt Windchill Windben Empfang
01.10.2017 00:00 11,6 C 11,6 C 11,6 C 89 % 1018,4 hPa 0,0 l/m 3,2 km/h (1 Bft) W-NW 292 0 min 0,000 mm 0 W/m 9,8 C 11,6 C 8,0 km/h (2 Bft) 98 %
01.10.2017 00:10 11,6 C 11,6 C 11,6 C 89 % 1018,4 hPa 0,0 l/m 3,2 km/h (1 Bft) W-NW 292 0 min 0,000 mm 0 W/m 9,8 C 11,6 C 11,3 km/h (2 Bft) 98 %
01.10.2017 00:20 11,5 C 11,5 C 11,6 C 89 % 1018,3 hPa 0,0 l/m 3,2 km/h (1 Bft) W-NW 292 0 min 0,000 mm 0 W/m 9,8 C 11,5 C 9,7 km/h (2 Bft) 97 %
01.10.2017 00:30 11,4 C 11,4 C 11,5 C 89 % 1018,3 hPa 0,0 l/m 0,0 km/h (0 Bft) N 0 0 min 0,000 mm 0 W/m 9,7 C 11,4 C 0,0 km/h (0 Bft) 98 %
01.10.2017 00:40 11,3 C 11,3 C 11,4 C 89 % 1018,3 hPa 0,0 l/m 0,0 km/h (0 Bft) W 270 0 min 0,000 mm 0 W/m 9,6 C 11,3 C 1,6 km/h (1 Bft) 97 %
01.10.2017 00:50 11,3 C 11,3 C 11,3 C 89 % 1018,5 hPa 0,0 l/m 0,0 km/h (0 Bft) W 270 0 min 0,000 mm 0 W/m 9,6 C 11,3 C 4,8 km/h (1 Bft) 98 %
01.10.2017 01:00 11,2 C 11,2 C 11,3 C 89 % 1018,7 hPa 0,0 l/m 1,6 km/h (1 Bft) W-NW 292 0 min 0,000 mm 0 W/m 9,5 C 11,2 C 8,0 km/h (2 Bft) 98 %
01.10.2017 01:10 11,2 C 11,2 C 11,2 C 89 % 1018,8 hPa 0,0 l/m 1,6 km/h (1 Bft) W-NW 292 0 min 0,000 mm 0 W/m 9,5 C 11,2 C 9,7 km/h (2 Bft) 97 %
01.10.2017 01:20 11,1 C 11,1 C 11,2 C 89 % 1018,8 hPa 0,0 l/m 1,6 km/h (1 Bft) W-NW 292 0 min 0,000 mm 0 W/m 9,4 C 11,1 C 8,0 km/h (2 Bft) 98 %
01.10.2017 01:30 11,1 C 11,1 C 11,1 C 89 % 1018,8 hPa 0,0 l/m 1,6 km/h (1 Bft) NW 315 0 min 0,000 mm 0 W/m 9,4 C 11,1 C 9,7 km/h (2 Bft) 97 %
01.10.2017 01:40 11,0 C 11,0 C 11,1 C 89 % 1018,8 hPa 0,0 l/m 1,6 km/h (1 Bft) W-NW 292 0 min 0,000 mm 0 W/m 9,3 C 11,0 C 6,4 km/h (2 Bft) 98 %
01.10.2017 01:50 10,9 C 10,9 C 11,0 C 89 % 1018,9 hPa 0,0 l/m 1,6 km/h (1 Bft) W-NW 292 0 min 0,000 mm 0 W/m 9,2 C 10,9 C 9,7 km/h (2 Bft) 97 %
01.10.2017 02:00 10,9 C 10,9 C 10,9 C 89 % 1018,9 hPa 0,0 l/m 3,2 km/h (1 Bft) W-NW 292 0 min 0,000 mm 0 W/m 9,2 C 10,9 C 8,0 km/h (2 Bft) 98 %
01.10.2017 02:10 10,8 C 10,8 C 10,9 C 90 % 1019,0 hPa 0,0 l/m 4,8 km/h (1 Bft) W-NW 292 0 min 0,000 mm 0 W/m 9,2 C 10,8 C 11,3 km/h (2 Bft) 98 %
01.10.2017 02:20 10,8 C 10,8 C 10,8 C 90 % 1019,1 hPa 0,0 l/m 1,6 km/h (1 Bft) NW 315 0 min 0,000 mm 0 W/m 9,2 C 10,8 C 8,0 km/h (2 Bft) 98 %
01.10.2017 02:30 10,7 C 10,7 C 10,8 C 89 % 1019,1 hPa 0,0 l/m 0,0 km/h (0 Bft) NW 315 0 min 0,000 mm 0 W/m 9,0 C 10,7 C 1,6 km/h (1 Bft) 97 %
01.10.2017 02:40 10,7 C 10,7 C 10,7 C 89 % 1019,2 hPa 0,0 l/m 0,0 km/h (0 Bft) N 0 0 min 0,000 mm 0 W/m 9,0 C 10,7 C 0,0 km/h (0 Bft) 98 %
01.10.2017 02:50 10,6 C 10,6 C 10,7 C 90 % 1019,2 hPa 0,0 l/m 0,0 km/h (0 Bft) N 0 0 min 0,000 mm 0 W/m 9,0 C 10,6 C 0,0 km/h (0 Bft) 98 %
01.10.2017 03:00 10,6 C 10,6 C 10,6 C 90 % 1019,3 hPa 0,0 l/m 0,0 km/h (0 Bft) N 0 0 min 0,000 mm 0 W/m 9,0 C 10,6 C 0,0 km/h (0 Bft) 98 %
01.10.2017 03:10 10,6 C 10,6 C 10,6 C 90 % 1019,2 hPa 0,0 l/m 0,0 km/h (0 Bft) N 0 0 min 0,000 mm 0 W/m 9,0 C 10,6 C 0,0 km/h (0 Bft) 98 %
01.10.2017 03:20 10,5 C 10,5 C 10,6 C 90 % 1019,4 hPa 0,0 l/m 0,0 km/h (0 Bft) W-NW 292 0 min 0,000 mm 0 W/m 8,9 C 10,5 C 4,8 km/h (1 Bft) 97 %
01.10.2017 03:30 10,5 C 10,5 C 10,5 C 90 % 1019,5 hPa 0,0 l/m 0,0 km/h (0 Bft) W-NW 292 0 min 0,000 mm 0 W/m 8,9 C 10,5 C 1,6 km/h (1 Bft) 96 %
01.10.2017 03:40 10,5 C 10,5 C 10,5 C 90 % 1019,5 hPa 0,0 l/m 1,6 km/h (1 Bft) W 270 0 min 0,000 mm 0 W/m 8,9 C 10,5 C 8,0 km/h (2 Bft) 97 %
01.10.2017 03:50 10,5 C 10,5 C 10,5 C 90 % 1019,5 hPa 0,0 l/m 0,0 km/h (0 Bft) W 270 0 min 0,000 mm 0 W/m 8,9 C 10,5 C 4,8 km/h (1 Bft) 99 %
01.10.2017 04:00 10,5 C 10,4 C 10,5 C 90 % 1019,6 hPa 0,0 l/m 1,6 km/h (1 Bft) W-NW 292 0 min 0,000 mm 0 W/m 8,9 C 10,5 C 8,0 km/h (2 Bft) 97 %
01.10.2017 04:10 10,4 C 10,4 C 10,5 C 90 % 1019,7 hPa 0,0 l/m 0,0 km/h (0 Bft) W-NW 292 0 min 0,000 mm 0 W/m 8,8 C 10,4 C 6,4 km/h (2 Bft) 98 %
01.10.2017 04:20 10,4 C 10,4 C 10,4 C 89 % 1019,8 hPa 0,0 l/m 0,0 km/h (0 Bft) N 0 0 min 0,000 mm 0 W/m 8,7 C 10,4 C 0,0 km/h (0 Bft) 97 %
01.10.2017 04:30 10,3 C 10,3 C 10,4 C 89 % 1019,9 hPa 0,0 l/m 0,0 km/h (0 Bft) N 0 0 min 0,000 mm 0 W/m 8,6 C 10,3 C 0,0 km/h (0 Bft) 98 %
01.10.2017 04:40 10,3 C 10,3 C 10,3 C 89 % 1019,9 hPa 0,0 l/m 0,0 km/h (0 Bft) N 0 0 min 0,000 mm 0 W/m 8,6 C 10,3 C 0,0 km/h (0 Bft) 97 %
01.10.2017 04:50 10,3 C 10,3 C 10,3 C 90 % 1019,9 hPa 0,0 l/m 0,0 km/h (0 Bft) N 0 0 min 0,000 mm 0 W/m 8,7 C 10,3 C 0,0 km/h (0 Bft) 97 %
01.10.2017 05:00 10,2 C 10,2 C 10,3 C 90 % 1019,9 hPa 0,0 l/m 0,0 km/h (0 Bft) N 0 0 min 0,000 mm 0 W/m 8,6 C 10,2 C 0,0 km/h (0 Bft) 98 %
01.10.2017 05:10 10,2 C 10,2 C 10,2 C 90 % 1020,0 hPa 0,0 l/m 0,0 km/h (0 Bft) N 0 0 min 0,000 mm 0 W/m 8,6 C 10,2 C 0,0 km/h (0 Bft) 87 %
01.10.2017 05:20 10,2 C 10,2 C 10,2 C 90 % 1020,0 hPa 0,0 l/m 0,0 km/h (0 Bft) N 0 0 min 0,000 mm 0 W/m 8,6 C 10,2 C 0,0 km/h (0 Bft) 98 %
01.10.2017 05:30 10,3 C 10,2 C 10,3 C 90 % 1020,2 hPa 0,0 l/m 0,0 km/h (0 Bft) N 0 0 min 0,000 mm 0 W/m 8,7 C 10,3 C 0,0 km/h (0 Bft) 97 %
01.10.2017 05:40 10,4 C 10,3 C 10,4 C 90 % 1020,4 hPa 0,0 l/m 0,0 km/h (0 Bft) N 0 0 min 0,000 mm 0 W/m 8,8 C 10,4 C 0,0 km/h (0 Bft) 97 %
01.10.2017 05:50 10,5 C 10,4 C 10,5 C 90 % 1020,4 hPa 0,0 l/m 0,0 km/h (0 Bft) W-NW 292 0 min 0,000 mm 0 W/m 8,9 C 10,5 C 6,4 km/h (2 Bft) 98 %
01.10.2017 06:00 10,6 C 10,5 C 10,6 C 90 % 1020,5 hPa 0,0 l/m 1,6 km/h (1 Bft) W 270 0 min 0,000 mm 0 W/m 9,0 C 10,6 C 11,3 km/h (2 Bft) 97 %
01.10.2017 06:10 10,5 C 10,5 C 10,6 C 90 % 1020,6 hPa 0,0 l/m 4,8 km/h (1 Bft) W 270 0 min 0,000 mm 0 W/m 8,9 C 10,5 C 16,1 km/h (3 Bft) 97 %
01.10.2017 06:20 10,4 C 10,4 C 10,5 C 90 % 1020,6 hPa 0,0 l/m 4,8 km/h (1 Bft) W 270 0 min 0,000 mm 0 W/m 8,8 C 10,4 C 11,3 km/h (2 Bft) 97 %
01.10.2017 06:30 10,3 C 10,3 C 10,4 C 90 % 1020,7 hPa 0,0 l/m 1,6 km/h (1 Bft) W-NW 292 0 min 0,000 mm 0 W/m 8,7 C 10,3 C 8,0 km/h (2 Bft) 98 %
01.10.2017 06:40 10,2 C 10,2 C 10,3 C 90 % 1020,7 hPa 0,0 l/m 1,6 km/h (1 Bft) W-NW 292 0 min 0,000 mm 0 W/m 8,6 C 10,2 C 6,4 km/h (2 Bft) 96 %
01.10.2017 06:50 10,0 C 10,0 C 10,2 C 90 % 1020,8 hPa 0,0 l/m 0,0 km/h (0 Bft) W-NW 292 0 min 0,000 mm 0 W/m 8,4 C 10,0 C 4,8 km/h (1 Bft) 97 %
01.10.2017 07:00 9,8 C 9,8 C 10,0 C 90 % 1020,9 hPa 0,0 l/m 0,0 km/h (0 Bft) N 0 0 min 0,000 mm 0 W/m 8,2 C 9,8 C 0,0 km/h (0 Bft) 98 %
01.10.2017 07:10 9,7 C 9,7 C 9,8 C 90 % 1021,0 hPa 0,0 l/m 0,0 km/h (0 Bft) N 0 0 min 0,000 mm 0 W/m 8,1 C 9,7 C 0,0 km/h (0 Bft) 93 %
01.10.2017 07:20 9,7 C 9,7 C 9,7 C 90 % 1021,1 hPa 0,0 l/m 0,0 km/h (0 Bft) N 0 0 min 0,000 mm 0 W/m 8,1 C 9,7 C 0,0 km/h (0 Bft) 96 %
01.10.2017 07:30 9,6 C 9,6 C 9,7 C 90 % 1021,2 hPa 0,0 l/m 0,0 km/h (0 Bft) N 0 0 min 0,000 mm 0 W/m 8,0 C 9,6 C 0,0 km/h (0 Bft) 94 %
01.10.2017 07:40 9,6 C 9,6 C 9,7 C 90 % 1021,1 hPa 0,0 l/m 0,0 km/h (0 Bft) W-NW 292 0 min 0,000 mm 5 W/m 8,0 C 9,6 C 1,6 km/h (1 Bft) 96 %
01.10.2017 07:50 9,4 C 9,4 C 9,6 C 90 % 1021,2 hPa 0,0 l/m 0,0 km/h (0 Bft) W-NW 292 0 min 0,000 mm 9 W/m 7,8 C 9,4 C 3,2 km/h (1 Bft) 96 %
01.10.2017 08:00 9,3 C 9,3 C 9,4 C 90 % 1021,3 hPa 0,0 l/m 0,0 km/h (0 Bft) N 0 0 min 0,000 mm 12 W/m 7,7 C 9,3 C 0,0 km/h (0 Bft) 96 %
01.10.2017 08:10 9,3 C 9,3 C 9,3 C 90 % 1021,3 hPa 0,0 l/m 0,0 km/h (0 Bft) N 0 0 min 0,000 mm 19 W/m 7,7 C 9,3 C 0,0 km/h (0 Bft) 97 %
01.10.2017 08:20 9,3 C 9,2 C 9,3 C 90 % 1021,5 hPa 0,0 l/m 0,0 km/h (0 Bft) N 0 0 min 0,000 mm 46 W/m 7,7 C 9,3 C 0,0 km/h (0 Bft) 97 %
01.10.2017 08:30 9,3 C 9,3 C 9,3 C 90 % 1021,6 hPa 0,0 l/m 0,0 km/h (0 Bft) N-NW 337 0 min 0,000 mm 58 W/m 7,7 C 9,3 C 1,6 km/h (1 Bft) 98 %
01.10.2017 08:40 9,6 C 9,3 C 9,6 C 90 % 1021,7 hPa 0,0 l/m 0,0 km/h (0 Bft) N 0 0 min 0,000 mm 84 W/m 8,0 C 9,6 C 0,0 km/h (0 Bft) 98 %
01.10.2017 08:50 9,8 C 9,6 C 9,8 C 90 % 1021,8 hPa 0,0 l/m 1,6 km/h (1 Bft) SW 225 0 min 0,000 mm 84 W/m 8,2 C 9,8 C 4,8 km/h (1 Bft) 97 %
01.10.2017 09:00 10,1 C 9,8 C 10,1 C 90 % 1021,8 hPa 0,0 l/m 3,2 km/h (1 Bft) S-SW 202 0 min 0,025 mm 123 W/m 8,5 C 10,1 C 9,7 km/h (2 Bft) 98 %
01.10.2017 09:10 10,2 C 10,1 C 10,3 C 90 % 1021,9 hPa 0,0 l/m 0,0 km/h (0 Bft) S-SW 202 0 min 0,000 mm 93 W/m 8,6 C 10,2 C 6,4 km/h (2 Bft) 98 %
01.10.2017 09:20 10,2 C 10,2 C 10,3 C 90 % 1021,8 hPa 0,0 l/m 1,6 km/h (1 Bft) S-SW 202 0 min 0,000 mm 98 W/m 8,6 C 10,2 C 6,4 km/h (2 Bft) 97 %
01.10.2017 09:30 10,2 C 10,2 C 10,2 C 90 % 1021,9 hPa 0,0 l/m 0,0 km/h (0 Bft) SW 225 0 min 0,000 mm 141 W/m 8,6 C 10,2 C 6,4 km/h (2 Bft) 97 %
01.10.2017 09:40 10,3 C 10,2 C 10,4 C 90 % 1021,8 hPa 0,0 l/m 0,0 km/h (0 Bft) W-SW 247 0 min 0,000 mm 137 W/m 8,7 C 10,3 C 1,6 km/h (1 Bft) 98 %
01.10.2017 09:50 10,4 C 10,4 C 10,5 C 90 % 1021,9 hPa 0,0 l/m 1,6 km/h (1 Bft) SW 225 0 min 0,000 mm 120 W/m 8,8 C 10,4 C 6,4 km/h (2 Bft) 98 %
01.10.2017 10:00 10,6 C 10,4 C 10,6 C 90 % 1021,8 hPa 0,0 l/m 1,6 km/h (1 Bft) SW 225 0 min 0,051 mm 151 W/m 9,0 C 10,6 C 6,4 km/h (2 Bft) 97 %
01.10.2017 10:10 10,8 C 10,6 C 10,8 C 89 % 1022,1 hPa 0,0 l/m 0,0 km/h (0 Bft) SW 225 0 min 0,000 mm 139 W/m 9,1 C 10,8 C 4,8 km/h (1 Bft) 97 %
01.10.2017 10:20 10,8 C 10,8 C 10,8 C 90 % 1022,1 hPa 0,0 l/m 0,0 km/h (0 Bft) N 0 0 min 0,000 mm 132 W/m 9,2 C 10,8 C 0,0 km/h (0 Bft) 97 %
01.10.2017 10:30 10,8 C 10,7 C 10,8 C 90 % 1022,2 hPa 0,0 l/m 0,0 km/h (0 Bft) SW 225 10 min 0,000 mm 174 W/m 9,2 C 10,8 C 1,6 km/h (1 Bft) 97 %
01.10.2017 10:40 10,9 C 10,8 C 11,0 C 90 % 1022,2 hPa 0,0 l/m 1,6 km/h (1 Bft) SW 225 10 min 0,000 mm 156 W/m 9,3 C 10,9 C 6,4 km/h (2 Bft) 100 %
01.10.2017 10:50 10,8 C 10,8 C 10,9 C 90 % 1022,1 hPa 0,0 l/m 1,6 km/h (1 Bft) S-SW 202 10 min 0,000 mm 190 W/m 9,2 C 10,8 C 4,8 km/h (1 Bft) 100 %
01.10.2017 11:00 10,9 C 10,8 C 10,9 C 90 % 1022,1 hPa 0,0 l/m 0,0 km/h (0 Bft) S-SW 202 10 min 0,076 mm 188 W/m 9,3 C 10,9 C 4,8 km/h (1 Bft) 99 %
01.10.2017 11:10 11,1 C 10,9 C 11,1 C 90 % 1022,1 hPa 0,0 l/m 1,6 km/h (1 Bft) S-SW 202 10 min 0,000 mm 234 W/m 9,5 C 11,1 C 8,0 km/h (2 Bft) 100 %
01.10.2017 11:20 11,3 C 11,1 C 11,3 C 90 % 1022,1 hPa 0,0 l/m 4,8 km/h (1 Bft) S-SW 202 10 min 0,000 mm 301 W/m 9,7 C 11,3 C 9,7 km/h (2 Bft) 99 %
01.10.2017 11:30 11,2 C 11,2 C 11,3 C 90 % 1022,2 hPa 0,0 l/m 1,6 km/h (1 Bft) S 180 10 min 0,000 mm 250 W/m 9,6 C 11,2 C 8,0 km/h (2 Bft) 97 %
01.10.2017 11:40 11,3 C 11,2 C 11,3 C 90 % 1022,2 hPa 0,0 l/m 0,0 km/h (0 Bft) S 180 10 min 0,000 mm 251 W/m 9,7 C 11,3 C 6,4 km/h (2 Bft) 99 %
01.10.2017 11:50 11,4 C 11,3 C 11,4 C 89 % 1022,0 hPa 0,0 l/m 3,2 km/h (1 Bft) S-SO 157 10 min 0,000 mm 229 W/m 9,7 C 11,4 C 8,0 km/h (2 Bft) 100 %
01.10.2017 12:00 11,4 C 11,3 C 11,4 C 89 % 1021,9 hPa 0,0 l/m 3,2 km/h (1 Bft) S-SW 202 10 min 0,102 mm 229 W/m 9,7 C 11,4 C 8,0 km/h (2 Bft) 100 %
01.10.2017 12:10 11,6 C 11,4 C 11,6 C 89 % 1022,0 hPa 0,0 l/m 1,6 km/h (1 Bft) S-SW 202 10 min 0,000 mm 267 W/m 9,8 C 11,6 C 4,8 km/h (1 Bft) 100 %
01.10.2017 12:20 11,6 C 11,4 C 11,6 C 89 % 1021,9 hPa 0,0 l/m 1,6 km/h (1 Bft) S 180 10 min 0,000 mm 316 W/m 9,8 C 11,6 C 6,4 km/h (2 Bft) 100 %
01.10.2017 12:30 11,7 C 11,6 C 11,7 C 87 % 1021,8 hPa 0,0 l/m 4,8 km/h (1 Bft) S 180 10 min 0,000 mm 345 W/m 9,6 C 11,7 C 8,0 km/h (2 Bft) 100 %
01.10.2017 12:40 11,8 C 11,6 C 11,8 C 89 % 1021,9 hPa 0,0 l/m 1,6 km/h (1 Bft) S-SW 202 10 min 0,000 mm 339 W/m 10,0 C 11,8 C 8,0 km/h (2 Bft) 99 %
01.10.2017 12:50 12,2 C 11,8 C 12,2 C 88 % 1021,9 hPa 0,0 l/m 3,2 km/h (1 Bft) SW 225 10 min 0,000 mm 378 W/m 10,3 C 12,2 C 8,0 km/h (2 Bft) 100 %
01.10.2017 13:00 12,9 C 12,2 C 12,9 C 87 % 1021,8 hPa 0,0 l/m 0,0 km/h (0 Bft) SW 225 10 min 0,178 mm 807 W/m 10,8 C 12,9 C 4,8 km/h (1 Bft) 100 %
01.10.2017 13:10 13,0 C 12,9 C 13,0 C 85 % 1021,8 hPa 0,0 l/m 0,0 km/h (0 Bft) SW 225 10 min 0,000 mm 485 W/m 10,5 C 13,0 C 8,0 km/h (2 Bft) 100 %
01.10.2017 13:20 12,9 C 12,9 C 13,1 C 83 % 1021,8 hPa 0,0 l/m 0,0 km/h (0 Bft) SW 225 10 min 0,000 mm 292 W/m 10,1 C 12,9 C 4,8 km/h (1 Bft) 100 %
01.10.2017 13:30 13,0 C 12,9 C 13,0 C 85 % 1021,8 hPa 0,0 l/m 0,0 km/h (0 Bft) N 0 10 min 0,000 mm 649 W/m 10,5 C 13,0 C 0,0 km/h (0 Bft) 100 %
01.10.2017 13:40 13,6 C 13,0 C 13,6 C 84 % 1021,8 hPa 0,0 l/m 0,0 km/h (0 Bft) W-NW 292 10 min 0,000 mm 786 W/m 10,9 C 13,6 C 1,6 km/h (1 Bft) 100 %
01.10.2017 13:50 14,1 C 13,6 C 14,1 C 82 % 1021,9 hPa 0,0 l/m 3,2 km/h (1 Bft) W-SW 247 10 min 0,000 mm 793 W/m 11,1 C 14,1 C 9,7 km/h (2 Bft) 100 %
01.10.2017 14:00 14,7 C 13,6 C 14,7 C 78 % 1021,6 hPa 0,0 l/m 0,2 km/h (0 Bft) SW 217 10 min 0,254 mm 650 W/m 10,9 C 14,7 C 8,0 km/h (2 Bft) 98 %
01.10.2017 14:10 14,4 C 14,4 C 14,8 C 78 % 1021,6 hPa 0,0 l/m 2,1 km/h (1 Bft) SW 229 10 min 0,000 mm 376 W/m 10,6 C 14,4 C 8,0 km/h (2 Bft) 97 %
01.10.2017 14:20 14,5 C 14,4 C 14,5 C 77 % 1021,6 hPa 0,0 l/m 0,7 km/h (0 Bft) W 281 10 min 0,000 mm 406 W/m 10,5 C 14,5 C 8,0 km/h (2 Bft) 98 %
01.10.2017 14:30 14,9 C 14,5 C 14,9 C 78 % 1021,5 hPa 0,0 l/m 2,6 km/h (1 Bft) SW 229 10 min 0,000 mm 633 W/m 11,1 C 14,9 C 11,3 km/h (2 Bft) 97 %
01.10.2017 14:40 15,2 C 14,9 C 15,2 C 76 % 1021,5 hPa 0,0 l/m 3,2 km/h (1 Bft) S-SW 198 10 min 0,000 mm 605 W/m 11,0 C 15,2 C 11,3 km/h (2 Bft) 97 %
01.10.2017 14:50 15,1 C 15,1 C 15,3 C 77 % 1021,4 hPa 0,0 l/m 0,6 km/h (0 Bft) S-SW 195 10 min 0,000 mm 213 W/m 11,1 C 15,1 C 6,4 km/h (2 Bft) 97 %
01.10.2017 15:00 15,1 C 15,1 C 15,1 C 78 % 1021,2 hPa 0,0 l/m 1,2 km/h (1 Bft) SW 227 10 min 0,254 mm 582 W/m 11,3 C 15,1 C 9,7 km/h (2 Bft) 97 %
01.10.2017 15:10 15,1 C 15,1 C 15,1 C 75 % 1021,1 hPa 0,0 l/m 0,7 km/h (0 Bft) W-SW 238 0 min 0,000 mm 142 W/m 10,7 C 15,1 C 8,0 km/h (2 Bft) 97 %
01.10.2017 15:20 15,1 C 15,1 C 15,1 C 73 % 1021,1 hPa 0,0 l/m 1,4 km/h (1 Bft) W-SW 250 10 min 0,000 mm 200 W/m 10,3 C 15,1 C 11,3 km/h (2 Bft) 97 %
01.10.2017 15:30 15,4 C 15,1 C 15,4 C 75 % 1021,1 hPa 0,0 l/m 0,6 km/h (0 Bft) S-SW 202 10 min 0,000 mm 482 W/m 11,0 C 15,4 C 8,0 km/h (2 Bft) 98 %
01.10.2017 15:40 15,5 C 15,3 C 15,5 C 73 % 1021,2 hPa 0,0 l/m 3,1 km/h (1 Bft) S-SO 157 10 min 0,000 mm 320 W/m 10,7 C 15,5 C 14,5 km/h (3 Bft) 97 %
01.10.2017 15:50 15,2 C 15,2 C 15,5 C 74 % 1021,2 hPa 0,0 l/m 0,3 km/h (0 Bft) O-SO 123 10 min 0,000 mm 167 W/m 10,6 C 15,2 C 6,4 km/h (2 Bft) 98 %
01.10.2017 16:00 15,2 C 15,2 C 15,3 C 70 % 1021,2 hPa 0,0 l/m 0,0 km/h (0 Bft) O-SO 120 0 min 0,152 mm 86 W/m 9,8 C 15,2 C 0,0 km/h (0 Bft) 97 %
01.10.2017 16:10 15,3 C 15,2 C 15,3 C 69 % 1021,1 hPa 0,0 l/m 0,1 km/h (0 Bft) S-SO 148 0 min 0,000 mm 65 W/m 9,6 C 15,3 C 4,8 km/h (1 Bft) 97 %
01.10.2017 16:20 15,3 C 15,3 C 15,3 C 70 % 1021,0 hPa 0,0 l/m 0,0 km/h (0 Bft) S-SO 168 0 min 0,000 mm 54 W/m 9,9 C 15,3 C 1,6 km/h (1 Bft) 97 %
01.10.2017 16:30 15,2 C 15,2 C 15,4 C 68 % 1020,9 hPa 0,0 l/m 0,0 km/h (0 Bft) S 180 0 min 0,000 mm 49 W/m 9,3 C 15,2 C 1,6 km/h (1 Bft) 97 %
01.10.2017 16:40 15,2 C 15,2 C 15,3 C 65 % 1020,9 hPa 0,0 l/m 0,2 km/h (0 Bft) S-SO 167 0 min 0,000 mm 46 W/m 8,7 C 15,2 C 6,4 km/h (2 Bft) 98 %
01.10.2017 16:50 15,2 C 15,1 C 15,2 C 67 % 1020,9 hPa 0,0 l/m 0,2 km/h (0 Bft) SO 145 0 min 0,000 mm 44 W/m 9,1 C 15,2 C 4,8 km/h (1 Bft) 99 %
01.10.2017 17:00 15,1 C 15,1 C 15,2 C 64 % 1020,9 hPa 0,0 l/m 0,0 km/h (0 Bft) SO 145 0 min 0,026 mm 42 W/m 8,3 C 15,1 C 0,0 km/h (0 Bft) 100 %
01.10.2017 17:10 15,1 C 15,1 C 15,1 C 64 % 1020,8 hPa 0,0 l/m 0,0 km/h (0 Bft) SO 136 0 min 0,000 mm 39 W/m 8,3 C 15,1 C 1,6 km/h (1 Bft) 100 %
01.10.2017 17:20 15,1 C 15,1 C 15,1 C 65 % 1020,7 hPa 0,0 l/m 0,0 km/h (0 Bft) SO 136 0 min 0,000 mm 33 W/m 8,6 C 15,1 C 1,6 km/h (1 Bft) 100 %
01.10.2017 17:30 14,9 C 14,9 C 15,1 C 67 % 1020,6 hPa 0,0 l/m 0,0 km/h (0 Bft) SO 136 0 min 0,000 mm 32 W/m 8,8 C 14,9 C 0,0 km/h (0 Bft) 100 %
01.10.2017 17:40 14,8 C 14,8 C 14,9 C 68 % 1020,6 hPa 0,0 l/m 0,0 km/h (0 Bft) SO 133 0 min 0,000 mm 33 W/m 9,0 C 14,8 C 1,6 km/h (1 Bft) 100 %
01.10.2017 17:50 14,7 C 14,7 C 14,8 C 69 % 1020,6 hPa 0,0 l/m 0,0 km/h (0 Bft) SO 133 0 min 0,000 mm 30 W/m 9,1 C 14,7 C 1,6 km/h (1 Bft) 100 %
01.10.2017 18:00 14,6 C 14,6 C 14,7 C 69 % 1020,7 hPa 0,0 l/m 0,0 km/h (0 Bft) SO 133 0 min 0,025 mm 28 W/m 9,0 C 14,6 C 1,6 km/h (1 Bft) 99 %
01.10.2017 18:10 14,4 C 14,4 C 14,6 C 72 % 1020,6 hPa 0,0 l/m 0,0 km/h (0 Bft) SO 133 0 min 0,000 mm 12 W/m 9,4 C 14,4 C 0,0 km/h (0 Bft) 100 %
01.10.2017 18:20 14,1 C 14,1 C 14,4 C 75 % 1020,6 hPa 0,0 l/m 0,0 km/h (0 Bft) SO 133 0 min 0,000 mm 11 W/m 9,7 C 14,1 C 0,0 km/h (0 Bft) 100 %
01.10.2017 18:30 13,5 C 13,5 C 14,1 C 74 % 1020,8 hPa 0,0 l/m 0,0 km/h (0 Bft) SO 133 0 min 0,000 mm 9 W/m 9,0 C 13,5 C 0,0 km/h (0 Bft) 100 %
01.10.2017 18:40 13,1 C 13,1 C 13,5 C 76 % 1020,7 hPa 0,0 l/m 0,0 km/h (0 Bft) SO 133 0 min 0,000 mm 5 W/m 9,0 C 13,1 C 0,0 km/h (0 Bft) 100 %
01.10.2017 18:50 12,7 C 12,7 C 13,1 C 78 % 1020,7 hPa 0,0 l/m 0,0 km/h (0 Bft) SO 133 0 min 0,000 mm 0 W/m 9,0 C 12,7 C 0,0 km/h (0 Bft) 100 %
01.10.2017 19:00 12,4 C 12,4 C 12,7 C 79 % 1020,8 hPa 0,0 l/m 0,0 km/h (0 Bft) SO 133 0 min 0,000 mm 0 W/m 8,9 C 12,4 C 0,0 km/h (0 Bft) 100 %
01.10.2017 19:10 12,1 C 12,1 C 12,4 C 79 % 1020,8 hPa 0,0 l/m 0,0 km/h (0 Bft) SO 133 0 min 0,000 mm 0 W/m 8,6 C 12,1 C 0,0 km/h (0 Bft) 100 %
01.10.2017 19:20 11,8 C 11,8 C 12,1 C 81 % 1020,9 hPa 0,0 l/m 0,0 km/h (0 Bft) SO 133 0 min 0,000 mm 0 W/m 8,6 C 11,8 C 0,0 km/h (0 Bft) 100 %
01.10.2017 19:30 11,4 C 11,4 C 11,8 C 81 % 1020,8 hPa 0,0 l/m 0,0 km/h (0 Bft) SO 133 0 min 0,000 mm 0 W/m 8,3 C 11,4 C 0,0 km/h (0 Bft) 100 %
01.10.2017 19:40 11,1 C 11,1 C 11,4 C 82 % 1020,8 hPa 0,0 l/m 0,0 km/h (0 Bft) SO 133 0 min 0,000 mm 0 W/m 8,1 C 11,1 C 0,0 km/h (0 Bft) 99 %
01.10.2017 19:50 10,8 C 10,8 C 11,1 C 84 % 1020,8 hPa 0,0 l/m 0,0 km/h (0 Bft) SO 133 0 min 0,000 mm 0 W/m 8,2 C 10,8 C 0,0 km/h (0 Bft) 100 %
01.10.2017 20:00 10,5 C 10,5 C 10,8 C 84 % 1020,8 hPa 0,0 l/m 0,0 km/h (0 Bft) SO 133 0 min 0,000 mm 0 W/m 7,9 C 10,5 C 0,0 km/h (0 Bft) 100 %
01.10.2017 20:10 10,2 C 10,2 C 10,5 C 86 % 1020,9 hPa 0,0 l/m 0,0 km/h (0 Bft) SO 133 0 min 0,000 mm 0 W/m 8,0 C 10,2 C 1,6 km/h (1 Bft) 100 %
01.10.2017 20:20 9,9 C 9,9 C 10,2 C 87 % 1021,0 hPa 0,0 l/m 0,0 km/h (0 Bft) SO 133 0 min 0,000 mm 0 W/m 7,8 C 9,9 C 0,0 km/h (0 Bft) 100 %
01.10.2017 20:30 9,6 C 9,6 C 9,9 C 87 % 1020,9 hPa 0,0 l/m 0,0 km/h (0 Bft) SO 133 0 min 0,000 mm 0 W/m 7,5 C 9,6 C 0,0 km/h (0 Bft) 100 %
01.10.2017 20:40 9,4 C 9,4 C 9,6 C 88 % 1020,8 hPa 0,0 l/m 0,0 km/h (0 Bft) SO 133 0 min 0,000 mm 0 W/m 7,5 C 9,4 C 0,0 km/h (0 Bft) 100 %
01.10.2017 20:50 9,2 C 9,2 C 9,4 C 88 % 1020,9 hPa 0,0 l/m 0,0 km/h (0 Bft) SO 133 0 min 0,000 mm 0 W/m 7,3 C 9,2 C 0,0 km/h (0 Bft) 100 %
01.10.2017 21:00 9,1 C 9,1 C 9,2 C 89 % 1020,9 hPa 0,0 l/m 0,0 km/h (0 Bft) SO 133 0 min 0,000 mm 0 W/m 7,4 C 9,1 C 1,6 km/h (1 Bft) 100 %
01.10.2017 21:10 9,0 C 9,0 C 9,1 C 89 % 1021,0 hPa 0,0 l/m 0,0 km/h (0 Bft) N 0 0 min 0,000 mm 0 W/m 7,3 C 9,0 C 0,0 km/h (0 Bft) 100 %
01.10.2017 21:20 8,8 C 8,8 C 9,0 C 89 % 1021,1 hPa 0,0 l/m 0,0 km/h (0 Bft) N 0 0 min 0,000 mm 0 W/m 7,1 C 8,8 C 0,0 km/h (0 Bft) 100 %
01.10.2017 21:30 8,6 C 8,6 C 8,8 C 89 % 1021,1 hPa 0,0 l/m 0,0 km/h (0 Bft) N 0 0 min 0,000 mm 0 W/m 6,9 C 8,6 C 0,0 km/h (0 Bft) 100 %
01.10.2017 21:40 8,4 C 8,4 C 8,6 C 89 % 1021,0 hPa 0,0 l/m 0,0 km/h (0 Bft) N 0 0 min 0,000 mm 0 W/m 6,7 C 8,4 C 0,0 km/h (0 Bft) 100 %
01.10.2017 21:50 8,2 C 8,2 C 8,4 C 89 % 1020,9 hPa 0,0 l/m 0,0 km/h (0 Bft) N 0 0 min 0,000 mm 0 W/m 6,5 C 8,2 C 0,0 km/h (0 Bft) 100 %
01.10.2017 22:00 8,1 C 8,1 C 8,2 C 89 % 1020,9 hPa 0,0 l/m 0,0 km/h (0 Bft) N 0 0 min 0,000 mm 0 W/m 6,4 C 8,1 C 0,0 km/h (0 Bft) 100 %
01.10.2017 22:10 7,9 C 7,9 C 8,1 C 89 % 1020,9 hPa 0,0 l/m 0,0 km/h (0 Bft) N 0 0 min 0,000 mm 0 W/m 6,2 C 7,9 C 0,0 km/h (0 Bft) 100 %
01.10.2017 22:20 7,8 C 7,8 C 7,9 C 89 % 1020,9 hPa 0,0 l/m 0,0 km/h (0 Bft) N 0 0 min 0,000 mm 0 W/m 6,1 C 7,8 C 0,0 km/h (0 Bft) 100 %
01.10.2017 22:30 7,8 C 7,8 C 7,8 C 89 % 1020,8 hPa 0,0 l/m 0,0 km/h (0 Bft) N 0 0 min 0,000 mm 0 W/m 6,1 C 7,8 C 0,0 km/h (0 Bft) 100 %
01.10.2017 22:40 7,7 C 7,7 C 7,8 C 89 % 1020,7 hPa 0,0 l/m 0,0 km/h (0 Bft) N 0 0 min 0,000 mm 0 W/m 6,0 C 7,7 C 0,0 km/h (0 Bft) 99 %
01.10.2017 22:50 7,6 C 7,6 C 7,7 C 89 % 1020,6 hPa 0,0 l/m 0,0 km/h (0 Bft) N 0 0 min 0,000 mm 0 W/m 5,9 C 7,6 C 0,0 km/h (0 Bft) 100 %
01.10.2017 23:00 7,5 C 7,5 C 7,6 C 89 % 1020,6 hPa 0,0 l/m 0,0 km/h (0 Bft) N 0 0 min 0,000 mm 0 W/m 5,8 C 7,5 C 0,0 km/h (0 Bft) 100 %
01.10.2017 23:10 7,5 C 7,5 C 7,5 C 89 % 1020,6 hPa 0,0 l/m 0,0 km/h (0 Bft) O 90 0 min 0,000 mm 0 W/m 5,8 C 7,5 C 4,8 km/h (1 Bft) 100 %
01.10.2017 23:20 7,4 C 7,4 C 7,5 C 89 % 1020,6 hPa 0,0 l/m 0,0 km/h (0 Bft) N 0 0 min 0,000 mm 0 W/m 5,7 C 7,4 C 0,0 km/h (0 Bft) 100 %
01.10.2017 23:30 7,4 C 7,4 C 7,4 C 89 % 1020,7 hPa 0,0 l/m 0,0 km/h (0 Bft) O-NO 67 0 min 0,000 mm 0 W/m 5,7 C 7,4 C 1,6 km/h (1 Bft) 99 %
01.10.2017 23:40 7,4 C 7,4 C 7,5 C 89 % 1020,6 hPa 0,0 l/m 0,0 km/h (0 Bft) N 0 0 min 0,000 mm 0 W/m 5,7 C 7,4 C 0,0 km/h (0 Bft) 100 %
01.10.2017 23:50 7,4 C 7,4 C 7,4 C 89 % 1020,4 hPa 0,0 l/m 0,0 km/h (0 Bft) N 0 0 min 0,000 mm 0 W/m 5,7 C 7,4 C 0,0 km/h (0 Bft) 100 %
_ Min-Zeit 23:20 23:20 23:30 17:00 00:20 - 00:30 - - - - - 23:20 23:20 00:30 05:10
Minimum _ 7,4 C 7,4 C 7,4 C 64 % 1018,3 hPa - 0,0 km/h (0 Bft) - - - - - 5,7 C 7,4 C 0,0 km/h (0 Bft) 87 %
_ Max-Zeit 15:40 15:40 15:40 02:10 10:30 00:00 02:10 - - 10:30 14:00 13:00 15:00 15:40 06:10 10:50
Maximum _ 15,5 C 15,3 C 15,5 C 90 % 1022,2 hPa 0,0 l/m 4,8 km/h
W-NW (1 Bft)
- - 10 min 0,254 mm 807 W/m 11,3 C 15,5 C 16,1 km/h
W-SW (3 Bft)
100 %
Durchschnitt _ 11,3 C 11,2 C 11,4 C 85 % 1020,7 hPa #0,0 l/m 0,7 km/h (0 Bft) W-NW - #5:20 h #1,143 mm 216 W/m 8,8 C 11,3 C 3,8 km/h (1 Bft) 98 %
PRIVATE WETTERSTATION BILLIGHEIM-ALLFELD - www.neckar-odenwald-wetter.de - Holger Sonntag